sensor_id;sensor_type;location;lat;lon;timestamp;temperature;humidity
16511;DHT22;8368;48.772;8.754;2023-03-14T00:00:12;8.20;99.90
16511;DHT22;8368;48.772;8.754;2023-03-14T00:02:39;8.20;99.90
16511;DHT22;8368;48.772;8.754;2023-03-14T00:05:05;8.20;99.90
16511;DHT22;8368;48.772;8.754;2023-03-14T00:07:35;8.20;99.90
16511;DHT22;8368;48.772;8.754;2023-03-14T00:10:10;8.20;99.90
16511;DHT22;8368;48.772;8.754;2023-03-14T00:12:36;8.20;99.90
16511;DHT22;8368;48.772;8.754;2023-03-14T00:15:01;8.20;99.90
16511;DHT22;8368;48.772;8.754;2023-03-14T00:17:29;8.20;99.90
16511;DHT22;8368;48.772;8.754;2023-03-14T00:19:55;8.20;99.90
16511;DHT22;8368;48.772;8.754;2023-03-14T00:22:20;8.20;99.90
16511;DHT22;8368;48.772;8.754;2023-03-14T00:24:46;8.20;99.90
16511;DHT22;8368;48.772;8.754;2023-03-14T00:27:12;8.20;99.90
16511;DHT22;8368;48.772;8.754;2023-03-14T00:29:38;8.10;99.90
16511;DHT22;8368;48.772;8.754;2023-03-14T00:32:03;8.10;99.90
16511;DHT22;8368;48.772;8.754;2023-03-14T00:34:30;8.20;99.90
16511;DHT22;8368;48.772;8.754;2023-03-14T00:36:55;8.20;99.90
16511;DHT22;8368;48.772;8.754;2023-03-14T00:39:21;8.20;99.90
16511;DHT22;8368;48.772;8.754;2023-03-14T00:41:46;8.20;99.90
16511;DHT22;8368;48.772;8.754;2023-03-14T00:44:12;8.20;99.90
16511;DHT22;8368;48.772;8.754;2023-03-14T00:46:38;8.20;99.90
16511;DHT22;8368;48.772;8.754;2023-03-14T00:49:04;8.20;99.90
16511;DHT22;8368;48.772;8.754;2023-03-14T00:51:29;8.20;99.90
16511;DHT22;8368;48.772;8.754;2023-03-14T00:53:55;8.20;99.90
16511;DHT22;8368;48.772;8.754;2023-03-14T00:56:20;8.20;99.90
16511;DHT22;8368;48.772;8.754;2023-03-14T00:58:46;8.20;99.90
16511;DHT22;8368;48.772;8.754;2023-03-14T01:01:16;8.30;99.90
16511;DHT22;8368;48.772;8.754;2023-03-14T01:03:42;8.30;99.90
16511;DHT22;8368;48.772;8.754;2023-03-14T01:06:11;8.30;99.90
16511;DHT22;8368;48.772;8.754;2023-03-14T01:08:37;8.30;99.90
16511;DHT22;8368;48.772;8.754;2023-03-14T01:11:20;8.30;99.90
16511;DHT22;8368;48.772;8.754;2023-03-14T01:13:46;8.30;99.90
16511;DHT22;8368;48.772;8.754;2023-03-14T01:16:12;8.30;99.90
16511;DHT22;8368;48.772;8.754;2023-03-14T01:18:40;8.30;99.90
16511;DHT22;8368;48.772;8.754;2023-03-14T01:21:12;8.40;99.90
16511;DHT22;8368;48.772;8.754;2023-03-14T01:23:38;8.30;99.90
16511;DHT22;8368;48.772;8.754;2023-03-14T01:26:03;8.30;99.90
16511;DHT22;8368;48.772;8.754;2023-03-14T01:28:29;8.30;99.90
16511;DHT22;8368;48.772;8.754;2023-03-14T01:30:54;8.20;99.90
16511;DHT22;8368;48.772;8.754;2023-03-14T01:33:20;8.20;99.90
16511;DHT22;8368;48.772;8.754;2023-03-14T01:35:45;8.20;99.90
16511;DHT22;8368;48.772;8.754;2023-03-14T01:38:11;8.20;99.90
16511;DHT22;8368;48.772;8.754;2023-03-14T01:40:44;8.20;99.90
16511;DHT22;8368;48.772;8.754;2023-03-14T01:43:16;8.20;99.90
16511;DHT22;8368;48.772;8.754;2023-03-14T01:51:02;8.10;99.90
16511;DHT22;8368;48.772;8.754;2023-03-14T01:53:28;8.10;99.90
16511;DHT22;8368;48.772;8.754;2023-03-14T01:55:55;8.10;99.90
16511;DHT22;8368;48.772;8.754;2023-03-14T01:58:25;8.10;99.90
16511;DHT22;8368;48.772;8.754;2023-03-14T02:00:54;8.00;99.90
16511;DHT22;8368;48.772;8.754;2023-03-14T02:03:21;8.00;99.90
16511;DHT22;8368;48.772;8.754;2023-03-14T02:05:48;8.00;99.90
16511;DHT22;8368;48.772;8.754;2023-03-14T02:08:19;8.00;99.90
16511;DHT22;8368;48.772;8.754;2023-03-14T02:10:48;7.90;99.90
16511;DHT22;8368;48.772;8.754;2023-03-14T02:13:15;8.00;99.90
16511;DHT22;8368;48.772;8.754;2023-03-14T02:15:42;8.00;99.90
16511;DHT22;8368;48.772;8.754;2023-03-14T02:18:08;7.90;99.90
16511;DHT22;8368;48.772;8.754;2023-03-14T02:23:27;7.90;99.90
16511;DHT22;8368;48.772;8.754;2023-03-14T02:26:03;7.90;99.90
16511;DHT22;8368;48.772;8.754;2023-03-14T02:28:30;7.90;99.90
16511;DHT22;8368;48.772;8.754;2023-03-14T02:30:55;7.90;99.90
16511;DHT22;8368;48.772;8.754;2023-03-14T02:33:21;7.80;99.90
16511;DHT22;8368;48.772;8.754;2023-03-14T02:35:59;7.80;99.90
16511;DHT22;8368;48.772;8.754;2023-03-14T02:38:36;7.80;99.90
16511;DHT22;8368;48.772;8.754;2023-03-14T02:41:03;7.80;99.90
16511;DHT22;8368;48.772;8.754;2023-03-14T02:43:29;7.70;99.90
16511;DHT22;8368;48.772;8.754;2023-03-14T02:45:55;7.80;99.90
16511;DHT22;8368;48.772;8.754;2023-03-14T02:48:25;7.70;99.90
16511;DHT22;8368;48.772;8.754;2023-03-14T02:50:55;7.70;99.90
16511;DHT22;8368;48.772;8.754;2023-03-14T02:53:25;7.70;99.90
16511;DHT22;8368;48.772;8.754;2023-03-14T02:55:51;7.70;99.90
16511;DHT22;8368;48.772;8.754;2023-03-14T02:58:17;7.60;99.90
16511;DHT22;8368;48.772;8.754;2023-03-14T03:00:43;7.60;99.90
16511;DHT22;8368;48.772;8.754;2023-03-14T03:03:09;7.60;99.90
16511;DHT22;8368;48.772;8.754;2023-03-14T03:05:35;7.70;99.90
16511;DHT22;8368;48.772;8.754;2023-03-14T03:08:00;7.60;99.90
16511;DHT22;8368;48.772;8.754;2023-03-14T03:10:27;7.70;99.90
16511;DHT22;8368;48.772;8.754;2023-03-14T03:12:53;7.60;99.90
16511;DHT22;8368;48.772;8.754;2023-03-14T03:15:18;7.60;99.90
16511;DHT22;8368;48.772;8.754;2023-03-14T03:17:44;7.60;99.90
16511;DHT22;8368;48.772;8.754;2023-03-14T03:20:10;7.60;99.90
16511;DHT22;8368;48.772;8.754;2023-03-14T03:22:36;7.60;99.90
16511;DHT22;8368;48.772;8.754;2023-03-14T03:25:03;7.60;99.90
16511;DHT22;8368;48.772;8.754;2023-03-14T03:27:33;7.60;99.90
16511;DHT22;8368;48.772;8.754;2023-03-14T03:29:59;7.60;99.90
16511;DHT22;8368;48.772;8.754;2023-03-14T03:32:25;7.50;99.90
16511;DHT22;8368;48.772;8.754;2023-03-14T03:34:51;7.50;99.90
16511;DHT22;8368;48.772;8.754;2023-03-14T03:37:16;7.50;99.90
16511;DHT22;8368;48.772;8.754;2023-03-14T03:39:42;7.50;99.90
16511;DHT22;8368;48.772;8.754;2023-03-14T03:42:07;7.50;99.90
16511;DHT22;8368;48.772;8.754;2023-03-14T03:44:33;7.40;99.90
16511;DHT22;8368;48.772;8.754;2023-03-14T03:46:58;7.40;99.90
16511;DHT22;8368;48.772;8.754;2023-03-14T03:49:27;7.40;99.90
16511;DHT22;8368;48.772;8.754;2023-03-14T03:51:53;7.40;99.90
16511;DHT22;8368;48.772;8.754;2023-03-14T03:54:18;7.40;99.90
16511;DHT22;8368;48.772;8.754;2023-03-14T03:56:44;7.40;99.90
16511;DHT22;8368;48.772;8.754;2023-03-14T03:59:09;7.30;99.90
16511;DHT22;8368;48.772;8.754;2023-03-14T04:01:35;7.30;99.90
16511;DHT22;8368;48.772;8.754;2023-03-14T04:04:01;7.30;99.90
16511;DHT22;8368;48.772;8.754;2023-03-14T04:06:26;7.30;99.90
16511;DHT22;8368;48.772;8.754;2023-03-14T04:08:53;7.20;99.90
16511;DHT22;8368;48.772;8.754;2023-03-14T04:11:19;7.20;99.90
16511;DHT22;8368;48.772;8.754;2023-03-14T04:13:44;7.20;99.90
16511;DHT22;8368;48.772;8.754;2023-03-14T04:16:16;7.30;99.90
16511;DHT22;8368;48.772;8.754;2023-03-14T04:18:43;7.30;99.90
16511;DHT22;8368;48.772;8.754;2023-03-14T04:21:08;7.30;99.90
16511;DHT22;8368;48.772;8.754;2023-03-14T04:23:34;7.20;99.90
16511;DHT22;8368;48.772;8.754;2023-03-14T04:25:59;7.20;99.90
16511;DHT22;8368;48.772;8.754;2023-03-14T04:28:25;7.30;99.90
16511;DHT22;8368;48.772;8.754;2023-03-14T04:30:51;7.30;99.90
16511;DHT22;8368;48.772;8.754;2023-03-14T04:33:16;7.30;99.90
16511;DHT22;8368;48.772;8.754;2023-03-14T04:35:44;7.30;99.90
16511;DHT22;8368;48.772;8.754;2023-03-14T04:38:10;7.20;99.90
16511;DHT22;8368;48.772;8.754;2023-03-14T04:40:40;7.20;99.90
16511;DHT22;8368;48.772;8.754;2023-03-14T04:43:06;7.20;99.90
16511;DHT22;8368;48.772;8.754;2023-03-14T04:45:32;7.30;99.90
16511;DHT22;8368;48.772;8.754;2023-03-14T04:47:57;7.30;99.90
16511;DHT22;8368;48.772;8.754;2023-03-14T04:50:23;7.20;99.90
16511;DHT22;8368;48.772;8.754;2023-03-14T04:52:48;7.20;99.90
16511;DHT22;8368;48.772;8.754;2023-03-14T04:55:14;7.20;99.90
16511;DHT22;8368;48.772;8.754;2023-03-14T04:57:40;7.20;99.90
16511;DHT22;8368;48.772;8.754;2023-03-14T05:00:06;7.20;99.90
16511;DHT22;8368;48.772;8.754;2023-03-14T05:02:32;7.20;99.90
16511;DHT22;8368;48.772;8.754;2023-03-14T05:04:58;7.20;99.90
16511;DHT22;8368;48.772;8.754;2023-03-14T05:07:24;7.20;99.90
16511;DHT22;8368;48.772;8.754;2023-03-14T05:09:49;7.10;99.90
16511;DHT22;8368;48.772;8.754;2023-03-14T05:12:15;7.10;99.90
16511;DHT22;8368;48.772;8.754;2023-03-14T05:14:40;7.10;99.90
16511;DHT22;8368;48.772;8.754;2023-03-14T05:17:06;7.10;99.90
16511;DHT22;8368;48.772;8.754;2023-03-14T05:19:31;7.10;99.90
16511;DHT22;8368;48.772;8.754;2023-03-14T05:21:57;7.10;99.90
16511;DHT22;8368;48.772;8.754;2023-03-14T05:24:22;7.10;99.90
16511;DHT22;8368;48.772;8.754;2023-03-14T05:26:48;7.20;99.90
16511;DHT22;8368;48.772;8.754;2023-03-14T05:29:13;7.10;99.90
16511;DHT22;8368;48.772;8.754;2023-03-14T05:31:39;7.10;99.90
16511;DHT22;8368;48.772;8.754;2023-03-14T05:34:04;7.10;99.90
16511;DHT22;8368;48.772;8.754;2023-03-14T05:36:30;7.10;99.90
16511;DHT22;8368;48.772;8.754;2023-03-14T05:38:55;7.10;99.90
16511;DHT22;8368;48.772;8.754;2023-03-14T05:41:21;7.20;99.90
16511;DHT22;8368;48.772;8.754;2023-03-14T05:43:46;7.20;99.90
16511;DHT22;8368;48.772;8.754;2023-03-14T05:46:12;7.20;99.90
16511;DHT22;8368;48.772;8.754;2023-03-14T05:48:37;7.20;99.90
16511;DHT22;8368;48.772;8.754;2023-03-14T05:51:03;7.10;99.90
16511;DHT22;8368;48.772;8.754;2023-03-14T05:53:29;7.10;99.90
16511;DHT22;8368;48.772;8.754;2023-03-14T05:55:56;7.10;99.90
16511;DHT22;8368;48.772;8.754;2023-03-14T05:58:21;7.10;99.90
16511;DHT22;8368;48.772;8.754;2023-03-14T06:00:47;7.00;99.90
16511;DHT22;8368;48.772;8.754;2023-03-14T06:03:13;7.20;99.90
16511;DHT22;8368;48.772;8.754;2023-03-14T06:05:39;7.20;99.90
16511;DHT22;8368;48.772;8.754;2023-03-14T06:08:04;7.20;99.90
16511;DHT22;8368;48.772;8.754;2023-03-14T06:10:30;7.30;99.90
16511;DHT22;8368;48.772;8.754;2023-03-14T06:12:55;7.30;99.90
16511;DHT22;8368;48.772;8.754;2023-03-14T06:15:21;7.30;99.90
16511;DHT22;8368;48.772;8.754;2023-03-14T06:17:46;7.30;99.90
16511;DHT22;8368;48.772;8.754;2023-03-14T06:20:12;7.40;99.90
16511;DHT22;8368;48.772;8.754;2023-03-14T06:22:38;7.40;99.90
16511;DHT22;8368;48.772;8.754;2023-03-14T06:25:05;7.40;99.90
16511;DHT22;8368;48.772;8.754;2023-03-14T06:27:30;7.40;99.90
16511;DHT22;8368;48.772;8.754;2023-03-14T06:29:56;7.30;99.90
16511;DHT22;8368;48.772;8.754;2023-03-14T06:32:22;7.30;99.90
16511;DHT22;8368;48.772;8.754;2023-03-14T06:34:47;7.30;99.90
16511;DHT22;8368;48.772;8.754;2023-03-14T06:37:13;7.40;99.90
16511;DHT22;8368;48.772;8.754;2023-03-14T06:39:38;7.40;99.90
16511;DHT22;8368;48.772;8.754;2023-03-14T06:42:04;7.40;99.90
16511;DHT22;8368;48.772;8.754;2023-03-14T06:44:30;7.50;99.90
16511;DHT22;8368;48.772;8.754;2023-03-14T06:46:56;7.50;99.90
16511;DHT22;8368;48.772;8.754;2023-03-14T06:49:21;7.40;99.90
16511;DHT22;8368;48.772;8.754;2023-03-14T06:51:47;7.40;99.90
16511;DHT22;8368;48.772;8.754;2023-03-14T06:54:12;7.50;99.90
16511;DHT22;8368;48.772;8.754;2023-03-14T06:56:38;7.50;99.90
16511;DHT22;8368;48.772;8.754;2023-03-14T06:59:03;7.60;99.90
16511;DHT22;8368;48.772;8.754;2023-03-14T07:01:30;7.70;99.90
16511;DHT22;8368;48.772;8.754;2023-03-14T07:03:57;7.70;99.90
16511;DHT22;8368;48.772;8.754;2023-03-14T07:06:24;7.70;99.90
16511;DHT22;8368;48.772;8.754;2023-03-14T07:08:50;7.80;99.90
16511;DHT22;8368;48.772;8.754;2023-03-14T07:11:16;7.90;99.90
16511;DHT22;8368;48.772;8.754;2023-03-14T07:13:41;8.00;99.90
16511;DHT22;8368;48.772;8.754;2023-03-14T07:16:07;8.10;99.90
16511;DHT22;8368;48.772;8.754;2023-03-14T07:18:33;8.10;99.90
16511;DHT22;8368;48.772;8.754;2023-03-14T07:20:58;8.20;99.90
16511;DHT22;8368;48.772;8.754;2023-03-14T07:23:24;8.20;99.90
16511;DHT22;8368;48.772;8.754;2023-03-14T07:25:49;8.30;99.90
16511;DHT22;8368;48.772;8.754;2023-03-14T07:28:16;8.40;99.90
16511;DHT22;8368;48.772;8.754;2023-03-14T07:30:42;8.50;99.90
16511;DHT22;8368;48.772;8.754;2023-03-14T07:33:07;8.50;99.90
16511;DHT22;8368;48.772;8.754;2023-03-14T07:35:33;8.50;99.90
16511;DHT22;8368;48.772;8.754;2023-03-14T07:37:58;8.50;99.90
16511;DHT22;8368;48.772;8.754;2023-03-14T07:40:24;8.50;99.90
16511;DHT22;8368;48.772;8.754;2023-03-14T07:42:49;8.60;99.90
16511;DHT22;8368;48.772;8.754;2023-03-14T07:45:15;8.70;99.90
16511;DHT22;8368;48.772;8.754;2023-03-14T07:47:40;8.70;99.90
16511;DHT22;8368;48.772;8.754;2023-03-14T07:50:07;8.80;99.90
16511;DHT22;8368;48.772;8.754;2023-03-14T07:52:32;9.00;99.90
16511;DHT22;8368;48.772;8.754;2023-03-14T07:54:58;9.00;99.90
16511;DHT22;8368;48.772;8.754;2023-03-14T07:57:24;9.00;99.90
16511;DHT22;8368;48.772;8.754;2023-03-14T07:59:49;9.00;99.90
16511;DHT22;8368;48.772;8.754;2023-03-14T08:02:15;9.10;99.90
16511;DHT22;8368;48.772;8.754;2023-03-14T08:04:41;9.10;99.90
16511;DHT22;8368;48.772;8.754;2023-03-14T08:07:07;9.30;99.90
16511;DHT22;8368;48.772;8.754;2023-03-14T08:09:32;9.30;99.90
16511;DHT22;8368;48.772;8.754;2023-03-14T08:11:58;9.30;99.90
16511;DHT22;8368;48.772;8.754;2023-03-14T08:14:23;9.30;99.90
16511;DHT22;8368;48.772;8.754;2023-03-14T08:16:50;9.20;99.90
16511;DHT22;8368;48.772;8.754;2023-03-14T08:19:16;9.20;99.90
16511;DHT22;8368;48.772;8.754;2023-03-14T08:21:41;9.20;99.90
16511;DHT22;8368;48.772;8.754;2023-03-14T08:24:07;9.10;99.90
16511;DHT22;8368;48.772;8.754;2023-03-14T08:26:32;9.10;99.90
16511;DHT22;8368;48.772;8.754;2023-03-14T08:28:58;9.10;99.90
16511;DHT22;8368;48.772;8.754;2023-03-14T08:31:24;9.00;99.90
16511;DHT22;8368;48.772;8.754;2023-03-14T08:33:49;9.00;99.90
16511;DHT22;8368;48.772;8.754;2023-03-14T08:36:17;9.00;99.90
16511;DHT22;8368;48.772;8.754;2023-03-14T08:38:43;9.00;99.90
16511;DHT22;8368;48.772;8.754;2023-03-14T08:41:09;9.00;99.90
16511;DHT22;8368;48.772;8.754;2023-03-14T08:43:35;9.00;99.90
16511;DHT22;8368;48.772;8.754;2023-03-14T08:46:01;9.10;99.90
16511;DHT22;8368;48.772;8.754;2023-03-14T08:48:27;9.10;99.90
16511;DHT22;8368;48.772;8.754;2023-03-14T08:50:55;9.10;99.90
16511;DHT22;8368;48.772;8.754;2023-03-14T08:53:21;9.20;99.90
16511;DHT22;8368;48.772;8.754;2023-03-14T08:55:52;9.20;99.90
16511;DHT22;8368;48.772;8.754;2023-03-14T08:58:18;9.20;99.90
16511;DHT22;8368;48.772;8.754;2023-03-14T09:00:43;9.20;99.90
16511;DHT22;8368;48.772;8.754;2023-03-14T09:03:09;9.30;99.90
16511;DHT22;8368;48.772;8.754;2023-03-14T09:05:34;9.20;99.90
16511;DHT22;8368;48.772;8.754;2023-03-14T09:08:00;9.20;99.90
16511;DHT22;8368;48.772;8.754;2023-03-14T09:10:26;9.30;99.90
16511;DHT22;8368;48.772;8.754;2023-03-14T09:12:51;9.30;99.90
16511;DHT22;8368;48.772;8.754;2023-03-14T09:15:17;9.40;99.90
16511;DHT22;8368;48.772;8.754;2023-03-14T09:17:43;9.40;99.90
16511;DHT22;8368;48.772;8.754;2023-03-14T09:20:10;9.50;99.90
16511;DHT22;8368;48.772;8.754;2023-03-14T09:22:36;9.60;99.90
16511;DHT22;8368;48.772;8.754;2023-03-14T09:25:03;9.60;99.90
16511;DHT22;8368;48.772;8.754;2023-03-14T09:27:28;9.70;99.90
16511;DHT22;8368;48.772;8.754;2023-03-14T09:29:54;9.70;99.90
16511;DHT22;8368;48.772;8.754;2023-03-14T09:32:19;9.80;99.90
16511;DHT22;8368;48.772;8.754;2023-03-14T09:34:45;9.80;99.90
16511;DHT22;8368;48.772;8.754;2023-03-14T09:37:11;9.70;99.90
16511;DHT22;8368;48.772;8.754;2023-03-14T09:39:37;9.50;99.90
16511;DHT22;8368;48.772;8.754;2023-03-14T09:42:05;9.50;99.90
16511;DHT22;8368;48.772;8.754;2023-03-14T09:44:37;9.50;99.90
16511;DHT22;8368;48.772;8.754;2023-03-14T09:47:12;9.50;99.90
16511;DHT22;8368;48.772;8.754;2023-03-14T09:49:42;9.60;99.90
16511;DHT22;8368;48.772;8.754;2023-03-14T09:52:21;9.70;99.90
16511;DHT22;8368;48.772;8.754;2023-03-14T09:54:51;9.90;99.90
16511;DHT22;8368;48.772;8.754;2023-03-14T09:57:20;10.10;99.90
16511;DHT22;8368;48.772;8.754;2023-03-14T09:59:48;10.30;99.90
16511;DHT22;8368;48.772;8.754;2023-03-14T10:02:26;10.40;99.90
16511;DHT22;8368;48.772;8.754;2023-03-14T10:04:54;10.30;99.90
16511;DHT22;8368;48.772;8.754;2023-03-14T10:07:29;10.30;99.90
16511;DHT22;8368;48.772;8.754;2023-03-14T10:09:55;10.40;99.90
16511;DHT22;8368;48.772;8.754;2023-03-14T10:12:32;10.40;99.90
16511;DHT22;8368;48.772;8.754;2023-03-14T10:15:08;10.30;99.90
16511;DHT22;8368;48.772;8.754;2023-03-14T10:17:48;10.10;99.90
16511;DHT22;8368;48.772;8.754;2023-03-14T10:20:40;10.10;99.90
16511;DHT22;8368;48.772;8.754;2023-03-14T10:23:28;10.20;99.90
16511;DHT22;8368;48.772;8.754;2023-03-14T10:26:15;10.30;99.90
16511;DHT22;8368;48.772;8.754;2023-03-14T10:28:47;10.30;99.90
16511;DHT22;8368;48.772;8.754;2023-03-14T10:31:14;10.30;99.90
16511;DHT22;8368;48.772;8.754;2023-03-14T10:33:40;10.30;99.90
16511;DHT22;8368;48.772;8.754;2023-03-14T10:36:19;10.10;99.90
16511;DHT22;8368;48.772;8.754;2023-03-14T10:38:46;9.90;99.90
16511;DHT22;8368;48.772;8.754;2023-03-14T10:41:24;9.80;99.90
16511;DHT22;8368;48.772;8.754;2023-03-14T10:43:53;9.80;99.90
16511;DHT22;8368;48.772;8.754;2023-03-14T10:46:20;9.90;99.90
16511;DHT22;8368;48.772;8.754;2023-03-14T10:48:47;9.90;99.90
16511;DHT22;8368;48.772;8.754;2023-03-14T10:53:46;9.90;99.90
16511;DHT22;8368;48.772;8.754;2023-03-14T10:56:23;9.80;99.90
16511;DHT22;8368;48.772;8.754;2023-03-14T10:58:51;9.70;99.90
16511;DHT22;8368;48.772;8.754;2023-03-14T11:06:48;9.30;99.90
16511;DHT22;8368;48.772;8.754;2023-03-14T11:09:39;9.10;99.90
16511;DHT22;8368;48.772;8.754;2023-03-14T11:12:26;9.10;99.90
16511;DHT22;8368;48.772;8.754;2023-03-14T11:15:03;9.00;99.90
16511;DHT22;8368;48.772;8.754;2023-03-14T11:17:38;9.10;99.90
16511;DHT22;8368;48.772;8.754;2023-03-14T11:20:35;9.10;99.90
16511;DHT22;8368;48.772;8.754;2023-03-14T11:23:13;9.20;99.90
16511;DHT22;8368;48.772;8.754;2023-03-14T11:25:59;9.20;99.90
16511;DHT22;8368;48.772;8.754;2023-03-14T11:28:37;9.20;99.90
16511;DHT22;8368;48.772;8.754;2023-03-14T11:31:19;9.00;99.90
16511;DHT22;8368;48.772;8.754;2023-03-14T11:34:11;8.80;99.90
16511;DHT22;8368;48.772;8.754;2023-03-14T11:36:51;8.70;99.90
16511;DHT22;8368;48.772;8.754;2023-03-14T11:39:34;8.80;99.90
16511;DHT22;8368;48.772;8.754;2023-03-14T11:42:03;8.90;99.90
16511;DHT22;8368;48.772;8.754;2023-03-14T11:44:48;9.10;99.90
16511;DHT22;8368;48.772;8.754;2023-03-14T11:47:29;9.20;99.90
16511;DHT22;8368;48.772;8.754;2023-03-14T11:50:15;9.20;99.90
16511;DHT22;8368;48.772;8.754;2023-03-14T11:53:34;9.10;99.90
16511;DHT22;8368;48.772;8.754;2023-03-14T11:55:37;8.90;99.90
16511;DHT22;8368;48.772;8.754;2023-03-14T12:00:47;8.60;99.90
16511;DHT22;8368;48.772;8.754;2023-03-14T12:03:36;8.40;99.90
16511;DHT22;8368;48.772;8.754;2023-03-14T12:06:31;8.20;99.90
16511;DHT22;8368;48.772;8.754;2023-03-14T12:09:02;8.10;99.90
16511;DHT22;8368;48.772;8.754;2023-03-14T12:14:29;8.00;99.90
16511;DHT22;8368;48.772;8.754;2023-03-14T12:16:58;7.90;99.90
16511;DHT22;8368;48.772;8.754;2023-03-14T12:22:28;7.80;99.90
16511;DHT22;8368;48.772;8.754;2023-03-14T12:25:01;7.50;99.90
16511;DHT22;8368;48.772;8.754;2023-03-14T12:28:32;7.50;99.90
16511;DHT22;8368;48.772;8.754;2023-03-14T12:30:41;7.60;99.90
16511;DHT22;8368;48.772;8.754;2023-03-14T12:33:29;7.60;99.90
16511;DHT22;8368;48.772;8.754;2023-03-14T12:36:00;7.70;99.90
16511;DHT22;8368;48.772;8.754;2023-03-14T12:39:05;7.60;99.90
16511;DHT22;8368;48.772;8.754;2023-03-14T12:41:42;7.70;99.90
16511;DHT22;8368;48.772;8.754;2023-03-14T12:47:00;7.80;99.90
16511;DHT22;8368;48.772;8.754;2023-03-14T12:49:39;7.70;99.90
16511;DHT22;8368;48.772;8.754;2023-03-14T12:52:13;8.00;99.90
16511;DHT22;8368;48.772;8.754;2023-03-14T12:54:55;8.30;99.90
16511;DHT22;8368;48.772;8.754;2023-03-14T12:57:36;8.50;99.90
16511;DHT22;8368;48.772;8.754;2023-03-14T13:00:30;8.80;99.90
16511;DHT22;8368;48.772;8.754;2023-03-14T13:03:21;9.00;99.90
16511;DHT22;8368;48.772;8.754;2023-03-14T13:06:01;8.90;99.90
16511;DHT22;8368;48.772;8.754;2023-03-14T13:08:48;8.50;99.90
16511;DHT22;8368;48.772;8.754;2023-03-14T13:11:19;8.40;99.90
16511;DHT22;8368;48.772;8.754;2023-03-14T13:13:49;8.20;99.90
16511;DHT22;8368;48.772;8.754;2023-03-14T13:16:20;8.00;99.90
16511;DHT22;8368;48.772;8.754;2023-03-14T13:18:48;8.00;99.90
16511;DHT22;8368;48.772;8.754;2023-03-14T13:21:21;7.90;99.90
16511;DHT22;8368;48.772;8.754;2023-03-14T13:24:03;7.80;99.90
16511;DHT22;8368;48.772;8.754;2023-03-14T13:26:35;7.80;99.90
16511;DHT22;8368;48.772;8.754;2023-03-14T13:29:09;7.60;99.90
16511;DHT22;8368;48.772;8.754;2023-03-14T13:31:44;7.60;99.90
16511;DHT22;8368;48.772;8.754;2023-03-14T13:34:11;7.70;99.90
16511;DHT22;8368;48.772;8.754;2023-03-14T13:36:37;7.70;99.90
16511;DHT22;8368;48.772;8.754;2023-03-14T13:39:06;7.90;99.90
16511;DHT22;8368;48.772;8.754;2023-03-14T13:41:36;8.20;99.90
16511;DHT22;8368;48.772;8.754;2023-03-14T13:44:14;8.40;99.90
16511;DHT22;8368;48.772;8.754;2023-03-14T13:46:41;8.80;99.90
16511;DHT22;8368;48.772;8.754;2023-03-14T13:49:10;8.80;99.90
16511;DHT22;8368;48.772;8.754;2023-03-14T13:51:38;8.50;99.90
16511;DHT22;8368;48.772;8.754;2023-03-14T13:54:13;8.60;99.90
16511;DHT22;8368;48.772;8.754;2023-03-14T13:56:39;8.30;99.90
16511;DHT22;8368;48.772;8.754;2023-03-14T13:59:28;8.20;99.90
16511;DHT22;8368;48.772;8.754;2023-03-14T14:01:54;8.20;99.90
16511;DHT22;8368;48.772;8.754;2023-03-14T14:04:23;8.00;99.90
16511;DHT22;8368;48.772;8.754;2023-03-14T14:09:38;7.90;99.90
16511;DHT22;8368;48.772;8.754;2023-03-14T14:15:00;8.10;99.90
16511;DHT22;8368;48.772;8.754;2023-03-14T14:20:00;7.70;99.90
16511;DHT22;8368;48.772;8.754;2023-03-14T14:22:27;7.70;99.90
16511;DHT22;8368;48.772;8.754;2023-03-14T14:24:52;7.80;99.90
16511;DHT22;8368;48.772;8.754;2023-03-14T14:27:24;7.80;99.90
16511;DHT22;8368;48.772;8.754;2023-03-14T14:30:27;7.70;99.90
16511;DHT22;8368;48.772;8.754;2023-03-14T14:32:54;7.60;99.90
16511;DHT22;8368;48.772;8.754;2023-03-14T14:35:34;7.70;99.90
16511;DHT22;8368;48.772;8.754;2023-03-14T14:38:00;7.60;99.90
16511;DHT22;8368;48.772;8.754;2023-03-14T14:40:28;7.50;99.90
16511;DHT22;8368;48.772;8.754;2023-03-14T14:42:55;7.40;99.90
16511;DHT22;8368;48.772;8.754;2023-03-14T14:45:23;7.40;99.90
16511;DHT22;8368;48.772;8.754;2023-03-14T14:47:54;7.40;99.90
16511;DHT22;8368;48.772;8.754;2023-03-14T14:50:30;7.40;99.90
16511;DHT22;8368;48.772;8.754;2023-03-14T14:52:58;7.50;99.90
16511;DHT22;8368;48.772;8.754;2023-03-14T14:55:32;7.40;99.90
16511;DHT22;8368;48.772;8.754;2023-03-14T14:58:17;7.50;99.90
16511;DHT22;8368;48.772;8.754;2023-03-14T15:00:59;7.50;99.90
16511;DHT22;8368;48.772;8.754;2023-03-14T15:03:29;7.50;99.90
16511;DHT22;8368;48.772;8.754;2023-03-14T15:05:55;7.40;99.90
16511;DHT22;8368;48.772;8.754;2023-03-14T15:08:21;7.40;99.90
16511;DHT22;8368;48.772;8.754;2023-03-14T15:10:47;7.50;99.90
16511;DHT22;8368;48.772;8.754;2023-03-14T15:13:12;7.40;99.90
16511;DHT22;8368;48.772;8.754;2023-03-14T15:15:38;7.40;99.90
16511;DHT22;8368;48.772;8.754;2023-03-14T15:18:16;7.40;99.90
16511;DHT22;8368;48.772;8.754;2023-03-14T15:20:43;7.40;99.90
16511;DHT22;8368;48.772;8.754;2023-03-14T15:23:14;7.40;99.90
16511;DHT22;8368;48.772;8.754;2023-03-14T15:25:40;7.30;99.90
16511;DHT22;8368;48.772;8.754;2023-03-14T15:28:18;7.30;99.90
16511;DHT22;8368;48.772;8.754;2023-03-14T15:30:46;7.20;99.90
16511;DHT22;8368;48.772;8.754;2023-03-14T15:33:11;7.10;99.90
16511;DHT22;8368;48.772;8.754;2023-03-14T15:35:37;7.10;99.90
16511;DHT22;8368;48.772;8.754;2023-03-14T15:38:03;7.10;99.90
16511;DHT22;8368;48.772;8.754;2023-03-14T15:40:29;7.10;99.90
16511;DHT22;8368;48.772;8.754;2023-03-14T15:42:55;7.00;99.90
16511;DHT22;8368;48.772;8.754;2023-03-14T15:45:20;6.90;99.90
16511;DHT22;8368;48.772;8.754;2023-03-14T15:47:46;6.90;99.90
16511;DHT22;8368;48.772;8.754;2023-03-14T15:50:12;6.80;99.90
16511;DHT22;8368;48.772;8.754;2023-03-14T15:52:37;6.80;99.90
16511;DHT22;8368;48.772;8.754;2023-03-14T15:55:03;6.70;99.90
16511;DHT22;8368;48.772;8.754;2023-03-14T15:57:29;6.80;99.90
16511;DHT22;8368;48.772;8.754;2023-03-14T15:59:54;6.80;99.90
16511;DHT22;8368;48.772;8.754;2023-03-14T16:02:20;7.00;99.90
16511;DHT22;8368;48.772;8.754;2023-03-14T16:04:45;7.10;99.90
16511;DHT22;8368;48.772;8.754;2023-03-14T16:07:11;7.10;99.90
16511;DHT22;8368;48.772;8.754;2023-03-14T16:09:36;7.20;99.90
16511;DHT22;8368;48.772;8.754;2023-03-14T16:12:02;7.20;99.90
16511;DHT22;8368;48.772;8.754;2023-03-14T16:14:30;7.30;99.90
16511;DHT22;8368;48.772;8.754;2023-03-14T16:16:55;7.30;99.90
16511;DHT22;8368;48.772;8.754;2023-03-14T16:19:24;7.30;99.90
16511;DHT22;8368;48.772;8.754;2023-03-14T16:21:51;7.20;99.90
16511;DHT22;8368;48.772;8.754;2023-03-14T16:24:17;7.00;99.90
16511;DHT22;8368;48.772;8.754;2023-03-14T16:26:42;7.00;99.90
16511;DHT22;8368;48.772;8.754;2023-03-14T16:29:09;7.00;99.90
16511;DHT22;8368;48.772;8.754;2023-03-14T16:31:35;7.00;99.90
16511;DHT22;8368;48.772;8.754;2023-03-14T16:34:08;7.00;99.90
16511;DHT22;8368;48.772;8.754;2023-03-14T16:36:33;7.00;99.90
16511;DHT22;8368;48.772;8.754;2023-03-14T16:38:59;7.00;99.90
16511;DHT22;8368;48.772;8.754;2023-03-14T16:41:24;7.00;99.90
16511;DHT22;8368;48.772;8.754;2023-03-14T16:43:50;6.90;99.90
16511;DHT22;8368;48.772;8.754;2023-03-14T16:46:18;6.90;99.90
16511;DHT22;8368;48.772;8.754;2023-03-14T16:48:46;6.80;99.90